Windlesham, United Kingdom
Current Conditions -  °F | °C
As of 9:20 PM on Friday 28 Nov 2014 (Local Time) from EGLF Reporting Station
Drizzle Drizzle  
Wind Chill: 10°   Ceiling: Unl
Heat Index: 10°   Visibility: 4mi
Dew Point:   Wind: 8mph
Humidity: 94%   Direction: 70°ENE
Pressure: 29.68"   Gusts: NA
Location:  51.37°N, 0.65°W
Report Text: EGLF 282120Z 07007KT 7000 -DZ NSC 10/09 Q1005
Loading
Personal Weather Stations






























Interactive Weather Map New forecast layout! Learn more

10-Day Weather Forecast

Advertisements
Track Severe Weather on mobile